Hauptseite
METAR-TAF:

METAR-TAF

Flughäfen :

Ashtabula County Airport

Ashtabula, Ohio, Vereinigte Staaten

Breite: 41-46-46N, Länge: 080-41-48W, Höhe: 281 m

Beobachtung

Neuester Wetterbericht von vor 15 Minuten, um 21:35 UTC
Wind 12 kt aus Süd/Südwest, Böen bis zu 19 kt
Temperatur 11°C
Luftfeuchtigkeit 87%
Luftdruck 1000 hPa
Sichtweite: 8.0 km
Leicht bewölkt in der Höhe von 900 ft
Durchbrochene Bewölkung in der Höhe von 2900 ft
Geschlossene Wolkendecke in der Höhe von 3400 ft
Leichtregen, feuchter Dunst

METAR: KHZY 092135Z AUTO 21012G19KT 5SM -RA BR FEW009 BKN029 OVC034 11/09 A2953 RMK AO2 P0006 T01060094

Zeit: 16:50 (21:50 UTC)


TAF: fehlend

Wetterbeobachtungen und Prognosen von mehr als 4000 Flughäfen (METAR und TAF Bericht).

Die verfügbaren Stationen werden durch gelbe und rote Markierungen auf der Karte dargestellt.

Führen Sie die Maus auf sie, um den Namen der Station zu sehen.

Darauf klicken, um die Beobachtung von Wetterbeobachtungen und Prognosen zu sehen.

Um die Karte zu ändern : klicken Sie auf den grünen Tasten mit einem schwarzen Kreuz Zum Vergrößern, auf den grünen Button mit einem Gedankenstrich zu verkleinern, oder auf die grünen Pfeile für benachbarte Karten.


METAR-TAF: